createdAt,value
2023-05-11T00:00:01.276Z,37.27
2023-05-11T00:01:01.270Z,37.28
2023-05-11T00:02:01.430Z,37.23
2023-05-11T00:03:01.317Z,37.24
2023-05-11T00:04:01.383Z,37.27
2023-05-11T00:05:01.268Z,37.26
2023-05-11T00:06:01.236Z,37.21
2023-05-11T00:07:01.240Z,37.27
2023-05-11T00:08:01.227Z,37.27
2023-05-11T00:09:01.218Z,37.24
2023-05-11T00:10:01.259Z,37.28
2023-05-11T00:11:01.209Z,37.25
2023-05-11T00:12:01.168Z,37.24
2023-05-11T00:13:01.155Z,37.29
2023-05-11T00:14:01.144Z,37.28
2023-05-11T00:15:01.132Z,37.26
2023-05-11T00:16:01.231Z,37.27
2023-05-11T00:17:01.109Z,37.26
2023-05-11T00:18:01.147Z,37.29
2023-05-11T00:19:01.218Z,37.29
2023-05-11T00:20:01.082Z,37.24
2023-05-11T00:21:01.085Z,37.27
2023-05-11T00:22:01.041Z,37.25
2023-05-11T00:23:01.015Z,37.30
2023-05-11T00:24:01.009Z,37.26
2023-05-11T00:25:00.976Z,37.28
2023-05-11T00:26:00.959Z,37.24
2023-05-11T00:27:00.961Z,37.26
2023-05-11T00:28:00.929Z,37.23
2023-05-11T00:29:00.876Z,37.26
2023-05-11T00:30:00.856Z,37.26
2023-05-11T00:31:00.886Z,37.29
2023-05-11T00:32:00.856Z,37.28
2023-05-11T00:33:00.861Z,37.26
2023-05-11T00:34:00.803Z,37.29
2023-05-11T00:35:00.781Z,37.30
2023-05-11T00:36:00.784Z,37.28
2023-05-11T00:37:00.728Z,37.26
2023-05-11T00:38:00.707Z,37.21
2023-05-11T00:39:00.692Z,37.25
2023-05-11T00:40:00.654Z,37.25
2023-05-11T00:41:00.630Z,37.25
2023-05-11T00:42:00.626Z,37.28
2023-05-11T00:43:00.596Z,37.28
2023-05-11T00:44:00.574Z,37.28
2023-05-11T00:45:00.534Z,37.28
2023-05-11T00:46:00.498Z,37.23
2023-05-11T00:47:00.566Z,37.29
2023-05-11T00:48:00.572Z,37.25
2023-05-11T00:49:00.438Z,37.25
2023-05-11T00:50:00.422Z,37.28
2023-05-11T00:51:00.407Z,37.25
2023-05-11T00:52:00.398Z,37.29
2023-05-11T00:53:00.374Z,37.26
2023-05-11T00:54:00.360Z,37.26
2023-05-11T00:55:00.357Z,37.24
2023-05-11T00:56:00.322Z,37.25
2023-05-11T00:57:00.292Z,37.30
2023-05-11T00:58:00.271Z,37.27
2023-05-11T00:59:00.285Z,37.22
2023-05-11T01:00:00.279Z,37.23
2023-05-11T01:01:00.295Z,37.25
2023-05-11T01:02:00.279Z,37.24
2023-05-11T01:03:00.276Z,37.27
2023-05-11T01:04:00.199Z,37.26
2023-05-11T01:05:00.169Z,37.27
2023-05-11T01:06:00.136Z,37.24
2023-05-11T01:07:00.142Z,37.18
2023-05-11T01:08:00.163Z,37.23
2023-05-11T01:09:00.132Z,37.20
2023-05-11T01:10:00.082Z,37.20
2023-05-11T01:11:00.115Z,37.18
2023-05-11T01:12:00.062Z,37.24
2023-05-11T01:13:00.011Z,37.21
2023-05-11T01:14:00.012Z,37.21
2023-05-11T01:15:00.018Z,37.20
2023-05-11T01:15:59.976Z,37.25
2023-05-11T01:16:59.979Z,37.22
2023-05-11T01:17:59.979Z,37.21
2023-05-11T01:19:00.022Z,37.22
2023-05-11T01:19:59.940Z,37.21
2023-05-11T01:20:59.929Z,37.23
2023-05-11T01:21:59.945Z,37.19
2023-05-11T01:22:59.893Z,37.21
2023-05-11T01:23:59.890Z,37.24
2023-05-11T01:24:59.890Z,37.14
2023-05-11T01:25:59.886Z,37.19
2023-05-11T01:26:59.874Z,37.19
2023-05-11T01:27:59.859Z,37.13
2023-05-11T01:28:59.877Z,37.16
2023-05-11T01:29:59.837Z,37.20
2023-05-11T01:30:59.847Z,37.17
2023-05-11T01:31:59.836Z,37.16
2023-05-11T01:32:59.835Z,37.17
2023-05-11T01:33:59.765Z,37.17
2023-05-11T01:34:59.774Z,37.15
2023-05-11T01:35:59.744Z,37.20
2023-05-11T01:36:59.710Z,37.17
2023-05-11T01:37:59.715Z,37.16
2023-05-11T01:38:59.652Z,37.14
2023-05-11T01:39:59.647Z,37.15
2023-05-11T01:40:59.621Z,37.14
2023-05-11T01:41:59.596Z,37.17
2023-05-11T01:42:59.580Z,37.17
2023-05-11T01:43:59.558Z,37.17
2023-05-11T01:44:59.539Z,37.16
2023-05-11T01:45:59.568Z,37.16
2023-05-11T01:46:59.522Z,37.14
2023-05-11T01:47:59.533Z,37.16
2023-05-11T01:48:59.470Z,37.13
2023-05-11T01:49:59.453Z,37.14
2023-05-11T01:50:59.438Z,37.09
2023-05-11T01:51:59.411Z,37.18
2023-05-11T01:52:59.403Z,37.17
2023-05-11T01:53:59.760Z,37.15
2023-05-11T01:54:59.405Z,37.17
2023-05-11T01:55:59.357Z,37.13
2023-05-11T01:56:59.342Z,37.17
2023-05-11T01:57:59.334Z,37.12
2023-05-11T01:58:59.331Z,37.14
2023-05-11T01:59:59.306Z,37.16
2023-05-11T02:00:59.297Z,37.13
2023-05-11T02:01:59.308Z,37.13
2023-05-11T02:02:59.420Z,37.12
2023-05-11T02:03:59.255Z,37.12
2023-05-11T02:04:59.246Z,37.14
2023-05-11T02:05:59.228Z,37.07
2023-05-11T02:06:59.229Z,37.14
2023-05-11T02:07:59.186Z,37.10
2023-05-11T02:08:59.167Z,37.13
2023-05-11T02:09:59.151Z,37.13
2023-05-11T02:10:59.128Z,37.08
2023-05-11T02:11:59.109Z,37.14
2023-05-11T02:12:59.114Z,37.10
2023-05-11T02:13:59.093Z,37.14
2023-05-11T02:14:59.059Z,37.14
2023-05-11T02:15:59.084Z,37.15
2023-05-11T02:16:59.033Z,37.12
2023-05-11T02:17:59.079Z,37.13
2023-05-11T02:18:59.317Z,37.14
2023-05-11T02:19:58.964Z,37.10
2023-05-11T02:20:58.976Z,37.10
2023-05-11T02:21:58.930Z,37.13
2023-05-11T02:22:58.899Z,37.13
2023-05-11T02:23:58.889Z,37.10
2023-05-11T02:24:58.867Z,37.13
2023-05-11T02:25:58.845Z,37.14
2023-05-11T02:26:58.832Z,37.13
2023-05-11T02:27:58.819Z,37.07
2023-05-11T02:28:58.832Z,37.12
2023-05-11T02:29:58.881Z,37.13
2023-05-11T02:30:58.975Z,37.10
2023-05-11T02:31:58.972Z,37.10
2023-05-11T02:32:59.047Z,37.08
2023-05-11T02:33:59.043Z,37.13
2023-05-11T02:34:59.113Z,37.06
2023-05-11T02:35:59.132Z,37.13
2023-05-11T02:36:59.163Z,37.10
2023-05-11T02:37:59.217Z,37.13
2023-05-11T02:38:59.247Z,37.13
2023-05-11T02:39:59.289Z,37.13
2023-05-11T02:40:59.327Z,37.10
2023-05-11T02:41:59.334Z,37.06
2023-05-11T02:42:59.330Z,37.12
2023-05-11T02:43:59.308Z,37.08
2023-05-11T02:44:59.289Z,37.09
2023-05-11T02:45:59.275Z,37.14
2023-05-11T02:46:59.354Z,37.09
2023-05-11T02:47:59.254Z,37.07
2023-05-11T02:48:59.208Z,37.10
2023-05-11T02:49:59.197Z,37.06
2023-05-11T02:50:59.213Z,37.11
2023-05-11T02:51:59.168Z,37.06
2023-05-11T02:52:59.155Z,37.09
2023-05-11T02:53:59.129Z,37.09
2023-05-11T02:54:59.106Z,37.05
2023-05-11T02:55:59.093Z,37.04
2023-05-11T02:56:59.076Z,37.06
2023-05-11T02:57:59.070Z,37.06
2023-05-11T02:58:59.047Z,37.05
2023-05-11T02:59:59.032Z,37.05
2023-05-11T03:00:59.084Z,37.07
2023-05-11T03:01:59.110Z,37.07
2023-05-11T03:02:59.061Z,37.04
2023-05-11T03:03:59.049Z,37.07
2023-05-11T03:04:58.954Z,37.03
2023-05-11T03:05:58.968Z,37.07
2023-05-11T03:06:58.934Z,37.05
2023-05-11T03:07:58.899Z,37.06
2023-05-11T03:08:58.913Z,37.05
2023-05-11T03:09:58.864Z,37.09
2023-05-11T03:10:58.855Z,37.01
2023-05-11T03:11:58.830Z,37.03
2023-05-11T03:12:58.819Z,37.06
2023-05-11T03:13:58.795Z,37.03
2023-05-11T03:14:58.785Z,37.02
2023-05-11T03:15:58.770Z,37.03
2023-05-11T03:16:58.789Z,37.03
2023-05-11T03:17:58.741Z,37.02
2023-05-11T03:18:58.748Z,37.06
2023-05-11T03:19:58.722Z,37.07
2023-05-11T03:20:58.708Z,37.08
2023-05-11T03:21:58.660Z,37.03
2023-05-11T03:22:58.686Z,37.04
2023-05-11T03:23:58.630Z,37.05
2023-05-11T03:24:58.626Z,37.02
2023-05-11T03:25:58.609Z,37.04
2023-05-11T03:26:58.622Z,36.98
2023-05-11T03:27:58.579Z,37.03
2023-05-11T03:28:58.569Z,37.00
2023-05-11T03:29:58.547Z,37.02
2023-05-11T03:30:58.538Z,37.02
2023-05-11T03:31:58.623Z,37.04
2023-05-11T03:32:58.596Z,37.00
2023-05-11T03:33:58.493Z,37.04
2023-05-11T03:34:58.478Z,37.02
2023-05-11T03:35:59.298Z,37.01
2023-05-11T03:36:58.429Z,37.02
2023-05-11T03:37:58.430Z,37.01
2023-05-11T03:38:58.430Z,37.02
2023-05-11T03:39:58.383Z,37.02
2023-05-11T03:40:58.384Z,36.98
2023-05-11T03:41:58.353Z,37.03
2023-05-11T03:42:58.338Z,37.02
2023-05-11T03:43:58.324Z,37.01
2023-05-11T03:44:58.322Z,37.03
2023-05-11T03:45:58.320Z,36.98
2023-05-11T03:46:58.278Z,37.00
2023-05-11T03:47:58.331Z,37.00
2023-05-11T03:48:58.244Z,36.99
2023-05-11T03:49:58.250Z,37.00
2023-05-11T03:50:58.206Z,37.00
2023-05-11T03:51:58.193Z,37.00
2023-05-11T03:52:58.171Z,36.98
2023-05-11T03:53:58.161Z,36.97
2023-05-11T03:54:58.166Z,36.97
2023-05-11T03:55:58.120Z,36.98
2023-05-11T03:56:58.110Z,37.01
2023-05-11T03:57:58.094Z,36.93
2023-05-11T03:58:58.084Z,36.96
2023-05-11T03:59:58.060Z,37.00
2023-05-11T04:00:58.047Z,36.93
2023-05-11T04:01:58.050Z,36.98
2023-05-11T04:02:58.047Z,37.02
2023-05-11T04:03:58.091Z,36.97
2023-05-11T04:04:57.972Z,36.94
2023-05-11T04:05:57.965Z,36.96
2023-05-11T04:06:57.953Z,36.92
2023-05-11T04:07:57.940Z,36.98
2023-05-11T04:08:57.914Z,36.95
2023-05-11T04:09:57.906Z,36.95
2023-05-11T04:10:57.925Z,37.01
2023-05-11T04:11:57.887Z,36.94
2023-05-11T04:12:57.882Z,36.99
2023-05-11T04:13:57.869Z,36.94
2023-05-11T04:14:57.857Z,36.94
2023-05-11T04:15:57.872Z,36.98
2023-05-11T04:16:57.830Z,36.93
2023-05-11T04:17:57.911Z,36.94
2023-05-11T04:18:57.885Z,36.98
2023-05-11T04:19:57.792Z,36.92
2023-05-11T04:20:57.766Z,36.94
2023-05-11T04:21:57.751Z,36.94
2023-05-11T04:22:57.739Z,36.98
2023-05-11T04:23:57.718Z,36.98
2023-05-11T04:24:57.707Z,36.98
2023-05-11T04:25:57.681Z,36.98
2023-05-11T04:26:57.705Z,36.95
2023-05-11T04:27:57.656Z,36.96
2023-05-11T04:28:57.638Z,36.95
2023-05-11T04:29:57.621Z,36.95
2023-05-11T04:30:57.599Z,36.94
2023-05-11T04:31:57.657Z,36.93
2023-05-11T04:32:57.603Z,36.92
2023-05-11T04:33:57.564Z,36.89
2023-05-11T04:34:57.548Z,36.89
2023-05-11T04:35:57.558Z,36.92
2023-05-11T04:36:57.580Z,36.93
2023-05-11T04:37:57.591Z,36.90
2023-05-11T04:38:57.636Z,36.94
2023-05-11T04:39:57.680Z,36.90
2023-05-11T04:40:57.708Z,36.90
2023-05-11T04:41:57.756Z,36.89
2023-05-11T04:42:57.809Z,36.92
2023-05-11T04:43:57.793Z,36.88
2023-05-11T04:44:57.810Z,36.92
2023-05-11T04:45:57.813Z,36.90
2023-05-11T04:46:57.878Z,36.90
2023-05-11T04:47:57.924Z,36.90
2023-05-11T04:48:57.884Z,36.93
2023-05-11T04:49:57.919Z,36.89
2023-05-11T04:50:57.929Z,36.90
2023-05-11T04:51:58.823Z,36.87
2023-05-11T04:52:58.010Z,36.92
2023-05-11T04:53:58.038Z,36.92
2023-05-11T04:54:58.059Z,36.90
2023-05-11T04:55:58.085Z,36.94
2023-05-11T04:56:58.109Z,36.88
2023-05-11T04:57:58.132Z,36.90
2023-05-11T04:58:58.154Z,36.87
2023-05-11T04:59:58.191Z,36.87
2023-05-11T05:00:58.184Z,36.92
2023-05-11T05:01:58.185Z,36.87
2023-05-11T05:02:58.244Z,36.88
2023-05-11T05:03:58.312Z,36.90
2023-05-11T05:04:58.265Z,36.90
2023-05-11T05:05:58.254Z,36.85
2023-05-11T05:06:58.287Z,36.86
2023-05-11T05:07:58.318Z,36.87
2023-05-11T05:08:58.358Z,36.86
2023-05-11T05:09:58.408Z,36.94
2023-05-11T05:10:58.418Z,36.87
2023-05-11T05:11:58.452Z,36.65
2023-05-11T05:12:58.488Z,36.27
2023-05-11T05:13:58.448Z,36.33
2023-05-11T05:14:58.496Z,36.00
2023-05-11T05:15:58.476Z,35.89
2023-05-11T05:16:58.519Z,35.72
2023-05-11T05:17:58.599Z,35.48
2023-05-11T05:18:58.567Z,35.27
2023-05-11T05:19:58.526Z,35.11
2023-05-11T05:20:58.843Z,35.01
2023-05-11T05:21:58.528Z,34.90
2023-05-11T05:22:58.534Z,34.81
2023-05-11T05:23:58.517Z,34.78
2023-05-11T05:24:58.514Z,34.67
2023-05-11T05:25:58.519Z,34.60
2023-05-11T05:26:58.870Z,34.45
2023-05-11T05:27:58.517Z,34.37
2023-05-11T05:28:58.493Z,34.32
2023-05-11T05:29:58.479Z,34.25
2023-05-11T05:30:58.938Z,34.14
2023-05-11T05:31:58.480Z,34.14
2023-05-11T05:32:58.520Z,34.10
2023-05-11T05:33:58.475Z,34.10
2023-05-11T05:35:30.346Z,34.02
2023-05-11T05:35:58.473Z,33.98
2023-05-11T05:36:58.422Z,33.90
2023-05-11T05:37:58.408Z,33.91
2023-05-11T05:38:58.374Z,33.75
2023-05-11T05:39:58.380Z,33.72
2023-05-11T05:40:59.373Z,33.65
2023-05-11T05:41:58.304Z,33.55
2023-05-11T05:42:58.280Z,33.62
2023-05-11T05:43:59.334Z,33.55
2023-05-11T05:44:58.852Z,33.54
2023-05-11T05:45:58.410Z,33.37
2023-05-11T05:46:58.244Z,33.38
2023-05-11T05:47:58.267Z,33.29
2023-05-11T05:48:58.354Z,33.22
2023-05-11T05:49:58.145Z,33.22
2023-05-11T05:50:58.367Z,33.06
2023-05-11T05:52:01.326Z,32.99
2023-05-11T05:52:58.060Z,32.80
2023-05-11T05:53:58.164Z,32.76
2023-05-11T05:54:58.165Z,32.66
2023-05-11T05:55:58.460Z,32.63
2023-05-11T05:56:58.117Z,32.52
2023-05-11T05:58:06.443Z,32.48
2023-05-11T05:58:57.922Z,32.44
2023-05-11T06:00:57.864Z,32.35
2023-05-11T06:02:13.473Z,32.34
2023-05-11T06:02:57.811Z,32.27
2023-05-11T06:04:05.284Z,32.21
2023-05-11T06:04:57.775Z,32.21
2023-05-11T06:06:05.279Z,32.11
2023-05-11T06:06:57.886Z,32.03
2023-05-11T06:08:09.150Z,31.96
2023-05-11T06:08:58.074Z,31.92
2023-05-11T06:10:04.980Z,31.89
2023-05-11T06:10:58.891Z,31.86
2023-05-11T06:12:00.760Z,31.83
2023-05-11T06:12:57.544Z,31.78
2023-05-11T06:13:57.477Z,31.70
2023-05-11T06:14:57.473Z,31.72
2023-05-11T06:15:57.883Z,31.65
2023-05-11T06:16:57.409Z,31.64
2023-05-11T06:17:57.496Z,31.55
2023-05-11T06:18:57.382Z,31.54
2023-05-11T06:19:57.341Z,31.52
2023-05-11T11:49:29.544Z,30.32
2023-05-11T11:50:30.484Z,30.24
2023-05-11T11:51:30.509Z,30.15
2023-05-11T11:52:30.515Z,30.17
2023-05-11T11:53:30.518Z,30.17
2023-05-11T11:54:30.561Z,30.15
2023-05-11T11:55:30.585Z,30.11
2023-05-11T11:56:30.617Z,30.17
2023-05-11T11:57:31.097Z,30.17
2023-05-11T11:58:30.680Z,30.13
2023-05-11T11:59:30.725Z,30.18
2023-05-11T12:00:30.747Z,30.09
2023-05-11T12:01:30.779Z,30.11
2023-05-11T12:02:31.149Z,30.10
2023-05-11T12:03:30.968Z,30.07
2023-05-11T12:04:31.101Z,30.09
2023-05-11T12:05:30.985Z,30.03
2023-05-11T12:06:30.945Z,30.06
2023-05-11T12:07:30.951Z,30.07
2023-05-11T12:08:30.969Z,30.07
2023-05-11T12:09:30.986Z,30.06
2023-05-11T12:10:30.994Z,30.11
2023-05-11T12:11:30.995Z,30.00
2023-05-11T12:12:31.032Z,30.06
2023-05-11T12:13:31.026Z,30.07
2023-05-11T12:14:31.009Z,30.08
2023-05-11T12:15:31.020Z,30.08
2023-05-11T12:16:31.046Z,30.02
2023-05-11T12:17:31.614Z,30.07
2023-05-11T12:18:31.099Z,30.04
2023-05-11T12:19:31.063Z,30.12
2023-05-11T12:20:31.081Z,30.12
2023-05-11T12:21:31.116Z,30.05
2023-05-11T12:22:31.105Z,30.25
2023-05-11T12:23:31.531Z,30.24
2023-05-11T12:24:31.132Z,30.28
2023-05-11T12:25:31.204Z,30.46
2023-05-11T12:26:31.183Z,30.57
2023-05-11T12:27:31.179Z,30.64
2023-05-11T12:28:31.190Z,30.71
2023-05-11T12:29:31.188Z,32.84
2023-05-11T12:30:31.208Z,34.05
2023-05-11T12:31:31.269Z,33.14
2023-05-11T12:32:31.701Z,32.42
2023-05-11T12:33:31.249Z,32.37
2023-05-11T12:34:31.262Z,32.86
2023-05-11T12:35:31.337Z,33.15
2023-05-11T12:36:31.282Z,33.29
2023-05-11T12:37:31.574Z,33.51
2023-05-11T12:38:31.299Z,33.73
2023-05-11T12:39:31.308Z,33.86
2023-05-11T12:40:31.310Z,33.78
2023-05-11T12:41:31.322Z,33.71
2023-05-11T12:42:32.718Z,33.61
2023-05-11T12:43:38.278Z,33.51
2023-05-11T12:44:31.346Z,33.44
2023-05-11T12:45:31.347Z,33.47
2023-05-11T12:46:31.429Z,33.45
2023-05-11T12:47:31.460Z,33.38
2023-05-11T12:48:31.394Z,33.40
2023-05-11T12:49:31.431Z,33.47
2023-05-11T12:50:31.422Z,33.41
2023-05-11T12:51:31.650Z,33.43
2023-05-11T12:52:31.335Z,33.40
2023-05-11T12:53:31.387Z,33.35
2023-05-11T12:54:31.347Z,33.32
2023-05-11T12:55:31.327Z,33.27
2023-05-11T12:56:31.557Z,33.29
2023-05-11T12:57:31.560Z,33.27
2023-05-11T12:58:31.304Z,33.25
2023-05-11T12:59:31.305Z,33.25
2023-05-11T13:00:31.297Z,33.18
2023-05-11T13:01:31.289Z,33.09
2023-05-11T13:02:31.646Z,33.05
2023-05-11T13:03:31.383Z,33.07
2023-05-11T13:04:31.560Z,33.02
2023-05-11T13:05:31.308Z,32.97
2023-05-11T13:06:31.327Z,32.97
2023-05-11T13:07:31.600Z,32.97
2023-05-11T13:08:31.361Z,32.93
2023-05-11T13:09:31.406Z,32.89
2023-05-11T13:10:31.399Z,32.79
2023-05-11T13:11:31.414Z,32.71
2023-05-11T13:12:32.497Z,32.78
2023-05-11T13:13:31.583Z,32.73
2023-05-11T13:14:31.472Z,32.75
2023-05-11T13:15:31.528Z,32.72
2023-05-11T13:16:31.564Z,32.68
2023-05-11T13:17:31.618Z,32.68
2023-05-11T13:18:31.614Z,32.68
2023-05-11T13:19:31.584Z,32.60
2023-05-11T13:20:31.638Z,32.59
2023-05-11T13:21:31.624Z,32.60
2023-05-11T13:22:31.635Z,32.55
2023-05-11T13:23:31.682Z,32.54
2023-05-11T13:24:32.932Z,32.52
2023-05-11T13:25:31.881Z,32.45
2023-05-11T13:26:31.676Z,32.44
2023-05-11T13:27:31.653Z,32.46
2023-05-11T13:28:31.653Z,32.41
2023-05-11T13:29:31.657Z,32.48
2023-05-11T13:30:33.375Z,32.44
2023-05-11T13:31:32.239Z,32.44
2023-05-11T13:32:31.664Z,32.47
2023-05-11T13:33:31.637Z,32.44
2023-05-11T13:34:31.643Z,32.37
2023-05-11T13:35:31.612Z,32.29
2023-05-11T13:36:33.932Z,32.33
2023-05-11T13:37:31.624Z,32.27
2023-05-11T13:38:31.587Z,32.27
2023-05-11T13:39:31.584Z,32.30
2023-05-11T13:40:31.566Z,32.27
2023-05-11T13:41:31.580Z,32.21
2023-05-11T13:42:31.562Z,32.24
2023-05-11T13:43:31.569Z,32.24
2023-05-11T13:44:31.533Z,32.27
2023-05-11T13:45:31.531Z,32.24
2023-05-11T13:46:31.564Z,32.26
2023-05-11T13:47:31.685Z,32.26
2023-05-11T13:48:31.486Z,32.26
2023-05-11T13:49:31.478Z,32.27
2023-05-11T13:50:31.471Z,32.26
2023-05-11T13:51:31.454Z,32.21
2023-05-11T13:52:31.576Z,32.23
2023-05-11T13:53:31.439Z,32.28
2023-05-11T13:54:31.440Z,32.31
2023-05-11T13:55:31.421Z,32.35
2023-05-11T13:56:31.406Z,32.35
2023-05-11T13:57:31.652Z,32.30
2023-05-11T13:58:31.390Z,32.35
2023-05-11T13:59:31.379Z,32.37
2023-05-11T14:00:31.395Z,32.31
2023-05-11T14:01:31.429Z,32.28
2023-05-11T14:02:31.473Z,32.28
2023-05-11T14:03:31.552Z,32.35
2023-05-11T14:04:31.333Z,32.32
2023-05-11T14:05:31.322Z,32.38
2023-05-11T14:06:31.310Z,32.41
2023-05-11T14:07:43.225Z,32.37
2023-05-11T14:08:31.282Z,32.32
2023-05-11T14:09:31.281Z,32.35
2023-05-11T14:10:31.584Z,32.31
2023-05-11T14:11:31.260Z,32.28
2023-05-11T14:12:31.241Z,32.24
2023-05-11T14:13:31.640Z,32.26
2023-05-11T14:14:31.218Z,32.31
2023-05-11T14:15:31.210Z,32.30
2023-05-11T14:16:31.201Z,32.28
2023-05-11T14:17:32.886Z,32.30
2023-05-11T14:18:31.708Z,32.30
2023-05-11T14:19:31.195Z,32.26
2023-05-11T14:20:31.164Z,32.39
2023-05-11T14:21:31.144Z,32.75
2023-05-11T14:22:31.129Z,33.03
2023-05-11T14:23:31.149Z,33.05
2023-05-11T14:24:31.594Z,33.09
2023-05-11T14:25:31.095Z,33.05
2023-05-11T14:26:31.102Z,33.14
2023-05-11T14:27:31.078Z,33.16
2023-05-11T14:28:31.093Z,33.14
2023-05-11T14:29:31.081Z,33.23
2023-05-11T14:30:31.040Z,33.22
2023-05-11T14:31:31.105Z,33.26
2023-05-11T14:32:31.059Z,33.23
2023-05-11T14:33:31.095Z,33.30
2023-05-11T14:34:30.998Z,33.29
2023-05-11T14:35:30.986Z,33.28
2023-05-11T14:36:30.967Z,33.27
2023-05-11T14:37:31.094Z,33.26
2023-05-11T14:38:30.961Z,33.24
2023-05-11T14:39:30.954Z,33.29
2023-05-11T14:40:30.946Z,33.27
2023-05-11T14:41:30.913Z,33.26
2023-05-11T14:42:30.904Z,33.31
2023-05-11T14:43:30.895Z,33.27
2023-05-11T14:44:30.884Z,33.35
2023-05-11T14:45:30.902Z,33.33
2023-05-11T14:46:30.969Z,33.37
2023-05-11T14:47:30.874Z,33.33
2023-05-11T14:48:30.864Z,33.40
2023-05-11T14:49:30.892Z,33.40
2023-05-11T14:50:30.916Z,33.38
2023-05-11T14:51:30.935Z,33.37
2023-05-11T14:52:30.969Z,33.40
2023-05-11T14:53:31.007Z,33.40
2023-05-11T14:54:31.027Z,33.46
2023-05-11T14:55:31.049Z,33.46
2023-05-11T14:56:31.091Z,33.44
2023-05-11T14:57:32.112Z,33.42
2023-05-11T14:58:31.166Z,33.39
2023-05-11T14:59:31.193Z,33.44
2023-05-11T15:00:31.225Z,33.45
2023-05-11T15:01:31.405Z,33.44
2023-05-11T15:02:31.322Z,33.45
2023-05-11T15:03:31.392Z,33.57
2023-05-11T15:04:31.369Z,33.51
2023-05-11T15:05:31.402Z,33.59
2023-05-11T15:06:31.445Z,33.53
2023-05-11T15:07:31.488Z,33.60
2023-05-11T15:08:31.522Z,33.53
2023-05-11T15:09:31.567Z,33.62
2023-05-11T15:10:31.625Z,33.60
2023-05-11T15:11:31.643Z,33.68
2023-05-11T15:12:31.683Z,33.60
2023-05-11T15:13:31.718Z,33.61
2023-05-11T15:14:31.749Z,33.64
2023-05-11T15:15:31.773Z,33.60
2023-05-11T15:16:31.853Z,33.64
2023-05-11T15:17:31.926Z,33.60
2023-05-11T15:18:31.870Z,33.58
2023-05-11T15:19:31.862Z,33.60
2023-05-11T15:20:31.892Z,33.60
2023-05-11T15:21:31.882Z,33.64
2023-05-11T15:22:31.873Z,33.60
2023-05-11T15:23:32.109Z,33.59
2023-05-11T15:24:31.862Z,33.56
2023-05-11T15:25:31.860Z,33.62
2023-05-11T15:26:31.863Z,33.59
2023-05-11T15:27:31.873Z,33.55
2023-05-11T15:28:31.878Z,33.58
2023-05-11T15:29:31.870Z,33.56
2023-05-11T15:30:32.829Z,33.58
2023-05-11T15:31:31.925Z,33.59
2023-05-11T15:32:31.934Z,33.55
2023-05-11T15:33:32.035Z,33.56
2023-05-11T15:34:31.959Z,33.55
2023-05-11T15:35:31.985Z,33.55
2023-05-11T15:36:32.029Z,33.57
2023-05-11T15:37:32.075Z,33.54
2023-05-11T15:38:32.164Z,33.54
2023-05-11T15:39:32.150Z,33.52
2023-05-11T15:40:32.193Z,33.57
2023-05-11T15:41:32.231Z,33.54
2023-05-11T15:42:32.270Z,33.45
2023-05-11T15:43:32.327Z,33.56
2023-05-11T15:44:32.382Z,33.54
2023-05-11T15:45:32.469Z,33.55
2023-05-11T15:46:32.474Z,33.53
2023-05-11T15:47:32.650Z,33.53
2023-05-11T15:48:32.625Z,33.53
2023-05-11T15:49:32.661Z,33.51
2023-05-11T15:50:32.689Z,33.51
2023-05-11T15:51:32.733Z,33.56
2023-05-11T15:52:32.794Z,33.56
2023-05-11T15:53:32.843Z,33.54
2023-05-11T15:54:35.277Z,33.53
2023-05-11T15:55:32.865Z,33.56
2023-05-11T15:56:32.853Z,33.57
2023-05-11T15:57:32.840Z,33.59
2023-05-11T15:58:32.826Z,33.57
2023-05-11T15:59:32.829Z,33.58
2023-05-11T16:00:32.816Z,33.57
2023-05-11T16:01:32.851Z,33.59
2023-05-11T16:02:32.866Z,33.57
2023-05-11T16:03:32.849Z,33.61
2023-05-11T16:04:32.731Z,33.53
2023-05-11T16:05:32.738Z,33.59
2023-05-11T16:06:32.692Z,33.58
2023-05-11T16:07:32.689Z,33.61
2023-05-11T16:08:32.672Z,33.59
2023-05-11T16:09:32.669Z,33.56
2023-05-11T16:10:32.653Z,33.56
2023-05-11T16:11:32.648Z,33.56
2023-05-11T16:12:32.635Z,33.61
2023-05-11T16:13:32.615Z,33.61
2023-05-11T16:14:32.622Z,33.61
2023-05-11T16:15:32.653Z,33.60
2023-05-11T16:16:32.732Z,33.61
2023-05-11T16:17:32.789Z,33.61
2023-05-11T16:18:32.825Z,33.61
2023-05-11T16:19:32.861Z,33.57
2023-05-11T16:20:32.908Z,33.61
2023-05-11T16:21:33.049Z,33.62
2023-05-11T16:22:32.938Z,33.62
2023-05-11T16:23:32.947Z,33.64
2023-05-11T16:24:34.514Z,33.62
2023-05-11T16:25:32.918Z,33.63
2023-05-11T16:26:32.891Z,33.68
2023-05-11T16:27:32.887Z,33.64
2023-05-11T16:28:32.860Z,33.71
2023-05-11T16:29:32.847Z,33.65
2023-05-11T16:30:32.976Z,33.63
2023-05-11T16:31:32.886Z,33.63
2023-05-11T16:32:32.832Z,33.65
2023-05-11T16:33:32.799Z,33.70
2023-05-11T16:34:32.780Z,33.67
2023-05-11T16:35:32.766Z,33.71
2023-05-11T16:36:32.742Z,33.66
2023-05-11T16:37:32.787Z,33.70
2023-05-11T16:38:32.716Z,33.73
2023-05-11T16:39:32.710Z,33.67
2023-05-11T16:40:32.685Z,33.71
2023-05-11T16:41:32.669Z,33.70
2023-05-11T16:42:32.658Z,33.70
2023-05-11T16:43:32.642Z,33.71
2023-05-11T16:44:32.620Z,33.76
2023-05-11T16:45:32.607Z,33.70
2023-05-11T16:46:32.666Z,33.70
2023-05-11T16:47:32.659Z,33.71
2023-05-11T16:48:32.574Z,33.71
2023-05-11T16:49:32.592Z,33.70
2023-05-11T16:50:32.564Z,33.73
2023-05-11T16:51:32.550Z,33.73
2023-05-11T16:52:32.532Z,33.75
2023-05-11T16:53:32.557Z,33.74
2023-05-11T16:54:32.513Z,33.72
2023-05-11T16:55:32.500Z,33.72
2023-05-11T16:56:32.486Z,33.76
2023-05-11T16:57:32.478Z,33.74
2023-05-11T16:58:32.499Z,33.77
2023-05-11T16:59:32.457Z,33.76
2023-05-11T17:00:34.173Z,33.78
2023-05-11T17:01:32.512Z,33.77
2023-05-11T17:02:32.431Z,33.76
2023-05-11T17:03:32.517Z,33.76
2023-05-11T17:04:32.389Z,33.77
2023-05-11T17:05:32.378Z,33.77
2023-05-11T17:06:32.361Z,33.80
2023-05-11T17:07:32.342Z,33.77
2023-05-11T17:08:32.359Z,33.80
2023-05-11T17:09:32.369Z,33.81
2023-05-11T17:10:32.290Z,33.77
2023-05-11T17:11:32.282Z,33.79
2023-05-11T17:12:32.268Z,33.81
2023-05-11T17:13:32.259Z,33.81
2023-05-11T17:14:32.248Z,33.82
2023-05-11T17:15:32.231Z,33.81
2023-05-11T17:16:32.269Z,33.83
2023-05-11T17:17:32.227Z,33.82
2023-05-11T17:18:32.230Z,33.81
2023-05-11T17:19:32.178Z,33.82
2023-05-11T17:20:32.176Z,33.81
2023-05-11T17:21:32.146Z,33.81
2023-05-11T17:22:32.133Z,33.82
2023-05-11T17:23:32.118Z,33.83
2023-05-11T17:24:32.136Z,33.83
2023-05-11T17:25:32.116Z,33.82
2023-05-11T17:26:43.322Z,33.81
2023-05-11T17:27:32.073Z,33.84
2023-05-11T17:28:32.103Z,33.85
2023-05-11T17:29:32.046Z,33.85
2023-05-11T17:30:47.577Z,33.89
2023-05-11T17:31:32.160Z,33.86
2023-05-11T17:32:32.380Z,33.87
2023-05-11T17:33:32.087Z,33.87
2023-05-11T17:34:32.110Z,33.83
2023-05-11T17:35:31.971Z,33.85
2023-05-11T17:36:31.946Z,33.89
2023-05-11T17:37:32.621Z,33.90
2023-05-11T17:38:31.930Z,33.89
2023-05-11T17:39:31.910Z,33.90
2023-05-11T17:40:31.892Z,33.87
2023-05-11T17:41:31.926Z,33.90
2023-05-11T17:42:31.867Z,33.89
2023-05-11T17:43:32.184Z,33.92
2023-05-11T17:44:31.848Z,33.90
2023-05-11T17:45:31.878Z,33.92
2023-05-11T17:46:31.873Z,33.93
2023-05-11T17:47:31.865Z,33.88
2023-05-11T17:48:31.837Z,33.91
2023-05-11T17:49:31.822Z,33.94
2023-05-11T17:50:31.797Z,33.93
2023-05-11T17:51:31.772Z,33.91
2023-05-11T17:52:31.762Z,33.92
2023-05-11T17:53:31.753Z,33.95
2023-05-11T17:54:31.756Z,33.95
2023-05-11T17:55:31.724Z,33.91
2023-05-11T17:56:31.711Z,33.93
2023-05-11T17:57:31.720Z,33.92
2023-05-11T17:58:31.665Z,33.90
2023-05-11T17:59:31.665Z,33.92
2023-05-11T18:00:31.644Z,33.92
2023-05-11T18:01:31.676Z,33.97
2023-05-11T18:02:31.709Z,33.91
2023-05-11T18:03:31.792Z,33.95
2023-05-11T18:04:31.592Z,33.95
2023-05-11T18:05:44.597Z,33.94
2023-05-11T18:06:31.619Z,33.94
2023-05-11T18:07:31.612Z,33.97
2023-05-11T18:08:31.601Z,33.94
2023-05-11T18:09:31.590Z,33.98
2023-05-11T18:10:31.570Z,33.99
2023-05-11T18:11:31.557Z,33.94
2023-05-11T18:12:31.548Z,33.97
2023-05-11T18:13:31.559Z,33.95
2023-05-11T18:14:31.520Z,33.94
2023-05-11T18:15:31.512Z,33.97
2023-05-11T18:16:31.559Z,33.98
2023-05-11T18:17:31.510Z,33.99
2023-05-11T18:18:31.510Z,33.99
2023-05-11T18:19:31.473Z,33.97
2023-05-11T18:20:31.461Z,33.98
2023-05-11T18:21:31.448Z,33.93